Kaprijke, Belgium
Current Conditions -  °F | °C
As of 3:25 AM on Thursday 23 Oct 2014 (Local Time) from EHFS Reporting Station
Overcast Overcast  
Wind Chill: 54°   Ceiling: 2600
Heat Index: 54°   Visibility: 6mi
Dew Point: 50°   Wind: 15mph
Humidity: 88%   Direction: 230°SW
Pressure: 30.18"   Gusts: NA
Location:  51.22°N, 3.62°E
Report Text: EHFS 230125Z AUTO 23013KT 9999 OVC026/// 12/10 Q1022
Loading
Personal Weather Stations






























Interactive Weather Map New forecast layout! Learn more

10-Day Weather Forecast

Advertisements
Track Severe Weather on mobile